Time;durP1;ratioP1;P1;durP2;ratioP2;P2;SDS_P1;SDS_P2;PMS_P1;PMS_P2;Temp;Humidity;BMP_temperature;BMP_pressure;BME280_temperature;BME280_humidity;BME280_pressure;Samples;Min_cycle;Max_cycle;Signal;HPM_P1;HPM_P2
2022/08/30 05:54:07;;;;;;;;;7.33;7.33;;;;;22.96;48.88;101409.13;5078198;27;45897;-74
2022/08/30 05:56:36;;;;;;;;;5.33;5.00;;;;;23.13;48.58;101415.66;5057853;27;46337;-73
2022/08/30 05:59:03;;;;;;;;;6.00;6.00;;;;;23.37;48.62;101420.53;5062972;27;45804;-73
2022/08/30 06:01:36;;;;;;;;;5.67;5.67;;;;;23.65;48.51;101420.50;5063235;27;45489;-72
2022/08/30 06:04:03;;;;;;;;;5.67;4.33;;;;;23.95;48.05;101423.84;5052149;27;45399;-73
2022/08/30 06:06:30;;;;;;;;;8.00;6.00;;;;;24.24;47.82;101421.09;5066795;28;45505;-74
2022/08/30 06:08:55;;;;;;;;;4.67;4.67;;;;;24.52;47.65;101424.50;5069334;28;45752;-73
2022/08/30 06:11:23;;;;;;;;;6.33;6.00;;;;;24.82;47.27;101416.06;5069543;28;45395;-72
2022/08/30 06:13:51;;;;;;;;;6.33;6.00;;;;;25.11;46.85;101412.16;5059175;28;47444;-72
2022/08/30 06:16:18;;;;;;;;;6.33;5.67;;;;;25.37;46.34;101416.66;5065176;28;46712;-72
2022/08/30 06:18:44;;;;;;;;;8.67;7.33;;;;;25.58;46.26;101416.22;5070920;27;45437;-72
2022/08/30 06:21:17;;;;;;;;;5.67;5.67;;;;;25.81;45.54;101412.03;5065880;27;45446;-72
2022/08/30 06:23:43;;;;;;;;;6.00;6.00;;;;;26.02;45.30;101416.97;5064897;27;47011;-72
2022/08/30 06:26:09;;;;;;;;;5.00;5.00;;;;;26.21;44.81;101417.66;5067006;28;45799;-73
2022/08/30 06:28:34;;;;;;;;;7.00;7.00;;;;;26.38;44.15;101419.41;5069187;27;45549;-74
2022/08/30 06:31:00;;;;;;;;;6.33;4.67;;;;;26.53;43.62;101416.81;5069278;27;45579;-73
2022/08/30 06:33:25;;;;;;;;;6.33;6.33;;;;;26.71;43.95;101421.22;5059095;27;46339;-76
2022/08/30 06:35:51;;;;;;;;;7.67;6.00;;;;;26.85;43.05;101419.63;5062151;28;45484;-75
2022/08/30 06:38:16;;;;;;;;;6.00;6.00;;;;;26.98;42.67;101421.84;5063955;27;45428;-75
2022/08/30 06:40:41;;;;;;;;;5.00;5.00;;;;;27.11;42.35;101418.56;5056495;28;45562;-75
2022/08/30 06:43:07;;;;;;;;;5.67;5.67;;;;;27.22;42.40;101417.34;5064107;28;45478;-75
2022/08/30 06:45:34;;;;;;;;;8.67;6.00;;;;;27.32;42.58;101426.13;5057765;27;45465;-73
2022/08/30 06:48:00;;;;;;;;;7.00;7.00;;;;;27.41;42.16;101426.94;5062237;28;45736;-73
2022/08/30 06:50:26;;;;;;;;;5.67;5.67;;;;;27.46;41.99;101429.97;5062009;28;45464;-74
2022/08/30 06:52:51;;;;;;;;;6.33;6.33;;;;;27.51;42.66;101431.31;5066853;28;46642;-74
2022/08/30 06:55:17;;;;;;;;;7.00;6.00;;;;;27.57;41.72;101441.50;5063989;28;45591;-74
2022/08/30 06:57:43;;;;;;;;;6.00;6.00;;;;;27.64;41.57;101441.66;5063650;28;45533;-74
2022/08/30 07:00:12;;;;;;;;;4.67;4.67;;;;;27.67;41.80;101438.59;5054417;28;45633;-74
2022/08/30 07:02:38;;;;;;;;;9.67;7.67;;;;;27.68;41.55;101438.41;5059822;28;47064;-74
2022/08/30 07:05:04;;;;;;;;;6.33;6.00;;;;;27.75;41.27;101446.72;5054027;28;45450;-74
2022/08/30 07:07:30;;;;;;;;;11.00;8.33;;;;;27.79;41.01;101450.75;5053755;28;45416;-74
2022/08/30 07:09:55;;;;;;;;;5.67;5.67;;;;;27.83;41.31;101445.81;5051100;28;47044;-73
2022/08/30 07:12:21;;;;;;;;;5.33;5.33;;;;;27.85;40.90;101458.25;5051673;28;45523;-73
2022/08/30 07:14:46;;;;;;;;;7.67;5.33;;;;;27.82;40.75;101452.28;5048495;28;45461;-73
2022/08/30 07:20:00;;;;;;;;;7.33;6.67;;;;;27.86;40.91;101450.88;5011812;28;45387;-72
2022/08/30 07:22:26;;;;;;;;;6.00;6.00;;;;;27.90;41.29;101460.41;5012681;28;45460;-70
2022/08/30 07:24:52;;;;;;;;;7.33;6.67;;;;;27.90;40.58;101460.41;5012687;28;45461;-72
2022/08/30 07:27:17;;;;;;;;;6.00;6.00;;;;;27.91;40.57;101451.19;5011681;28;45529;-73
2022/08/30 07:29:44;;;;;;;;;7.00;7.00;;;;;27.90;40.99;101452.22;5009974;28;45539;-72
2022/08/30 07:32:09;;;;;;;;;5.33;5.00;;;;;27.93;40.69;101456.47;5012563;28;46457;-73
2022/08/30 07:34:34;;;;;;;;;7.67;7.67;;;;;27.93;41.11;101451.00;5008950;28;46163;-74
2022/08/30 07:37:00;;;;;;;;;6.33;6.33;;;;;27.98;41.12;101452.19;5010231;28;45392;-73
2022/08/30 07:39:25;;;;;;;;;11.33;6.33;;;;;28.03;40.50;101459.81;5012780;28;45998;-74
2022/08/30 07:41:50;;;;;;;;;6.00;6.00;;;;;28.06;40.41;101459.44;5021755;28;45456;-74
2022/08/30 07:44:16;;;;;;;;;4.00;4.00;;;;;28.09;40.47;101463.69;5010504;28;51208;-74
2022/08/30 07:46:42;;;;;;;;;8.00;7.33;;;;;28.13;40.72;101462.31;5010563;28;45453;-73
2022/08/30 07:49:09;;;;;;;;;6.33;6.33;;;;;28.12;40.46;101469.63;5011033;28;45453;-72
2022/08/30 07:51:36;;;;;;;;;6.00;5.00;;;;;28.10;39.78;101468.13;5012784;28;48380;-73
2022/08/30 07:54:02;;;;;;;;;9.00;7.33;;;;;28.10;40.29;101465.38;5011731;28;45484;-73
2022/08/30 07:56:27;;;;;;;;;7.33;7.33;;;;;28.10;39.78;101476.28;5016909;28;45539;-72
2022/08/30 07:58:53;;;;;;;;;8.67;7.33;;;;;28.09;40.58;101474.59;5054193;28;45545;-72
2022/08/30 08:01:20;;;;;;;;;5.00;5.00;;;;;28.07;39.77;101471.22;5051752;28;46184;-72
2022/08/30 08:03:46;;;;;;;;;6.00;5.00;;;;;28.06;40.41;101470.38;5050689;28;45437;-72
2022/08/30 08:06:13;;;;;;;;;7.33;6.00;;;;;28.06;40.64;101472.22;5050770;28;45460;-73
2022/08/30 08:08:40;;;;;;;;;5.67;5.33;;;;;28.07;40.45;101472.06;5051749;28;45494;-72
2022/08/30 08:11:14;;;;;;;;;9.00;8.00;;;;;28.08;39.86;101478.38;5048085;28;46393;-72
2022/08/30 08:13:41;;;;;;;;;7.00;6.67;;;;;28.08;40.21;101464.72;5035302;28;45510;-72
2022/08/30 08:16:06;;;;;;;;;5.33;5.33;;;;;28.05;40.13;101471.41;5045892;28;45546;-72
2022/08/30 08:18:32;;;;;;;;;10.33;6.00;;;;;28.07;40.29;101474.78;5048720;28;45534;-72
2022/08/30 08:20:58;;;;;;;;;8.00;8.00;;;;;28.07;39.81;101474.78;5043292;28;46243;-71
2022/08/30 08:23:24;;;;;;;;;9.00;7.00;;;;;28.09;39.48;101482.78;5044168;28;45648;-72
2022/08/30 08:25:49;;;;;;;;;5.67;5.33;;;;;28.09;39.65;101482.78;5040204;28;45774;-73
2022/08/30 08:28:14;;;;;;;;;8.33;8.33;;;;;28.07;39.63;101490.31;5038818;28;46813;-73
2022/08/30 08:30:40;;;;;;;;;6.00;6.00;;;;;28.07;40.05;101499.34;5045398;28;45929;-74
2022/08/30 08:33:05;;;;;;;;;7.33;6.33;;;;;28.08;40.03;101498.31;5047383;28;47075;-74
2022/08/30 08:35:31;;;;;;;;;5.67;5.67;;;;;28.10;40.14;101504.44;5044810;28;45847;-74
2022/08/30 08:37:56;;;;;;;;;7.00;7.00;;;;;28.11;40.07;101514.31;5046928;28;45410;-73
2022/08/30 08:40:22;;;;;;;;;6.67;6.67;;;;;28.12;39.94;101520.66;5046406;28;46418;-74
2022/08/30 08:43:00;;;;;;;;;8.00;7.00;;;;;28.13;39.45;101522.34;5050233;28;45412;-74
2022/08/30 08:45:40;;;;;;;;;7.33;7.33;;;;;28.12;39.86;101520.66;5050533;28;45586;-75
2022/08/30 08:48:37;;;;;;;;;7.67;7.00;;;;;28.18;40.15;101532.69;5048358;28;45531;-75
2022/08/30 08:53:56;;;;;;;;;7.33;6.33;;;;;28.35;40.02;101530.72;5047494;28;45724;-75
2022/08/30 08:56:22;;;;;;;;;10.67;6.00;;;;;28.40;39.77;101537.34;5044309;28;45581;-76
2022/08/30 08:58:54;;;;;;;;;6.67;5.67;;;;;28.46;39.68;101543.97;5058026;28;45734;-76
2022/08/30 09:01:27;;;;;;;;;6.00;6.00;;;;;28.52;40.11;101540.50;5048476;28;45479;-75
2022/08/30 09:03:54;;;;;;;;;5.00;5.00;;;;;28.55;39.64;101542.00;5052225;28;45388;-75
2022/08/30 09:06:22;;;;;;;;;7.00;7.00;;;;;28.60;40.31;101538.75;5046653;28;45643;-75
2022/08/30 09:08:48;;;;;;;;;6.00;6.00;;;;;28.64;40.03;101537.31;5047763;28;46265;-75
2022/08/30 09:11:22;;;;;;;;;7.00;5.67;;;;;28.68;40.27;101546.84;5046078;28;45635;-75
2022/08/30 09:13:47;;;;;;;;;7.33;7.33;;;;;28.70;40.43;101542.06;5049371;28;45443;-75
2022/08/30 09:16:44;;;;;;;;;6.00;6.00;;;;;28.72;40.57;101539.16;5036595;28;45793;-75
2022/08/30 09:19:10;;;;;;;;;6.00;6.00;;;;;28.77;40.63;101545.72;5048926;28;45629;-74
2022/08/30 09:21:36;;;;;;;;;6.00;6.00;;;;;28.79;39.98;101551.88;5053293;28;45992;-75
2022/08/30 09:24:03;;;;;;;;;5.33;4.67;;;;;28.81;39.86;101543.47;5044901;28;45550;-75
2022/08/30 09:26:35;;;;;;;;;6.33;6.33;;;;;28.86;40.62;101553.88;5048251;28;45501;-75
2022/08/30 09:29:01;;;;;;;;;7.00;5.33;;;;;28.87;40.28;101542.75;5046189;28;45540;-75
2022/08/30 09:31:47;;;;;;;;;6.67;6.67;;;;;28.91;40.66;101545.97;5033860;28;47074;-75
2022/08/30 09:34:19;;;;;;;;;7.00;7.00;;;;;28.93;39.99;101544.75;5033664;28;45506;-72
2022/08/30 09:36:50;;;;;;;;;7.00;7.00;;;;;28.88;40.67;101555.41;5036701;28;45699;-72
2022/08/30 09:39:28;;;;;;;;;11.00;7.67;;;;;28.79;39.92;101548.28;5041192;28;45562;-72
2022/08/30 09:42:09;;;;;;;;;11.00;8.67;;;;;28.70;40.36;101549.38;5041910;28;46080;-72
2022/08/30 09:44:37;;;;;;;;;8.00;8.00;;;;;28.57;40.34;101544.56;5032777;28;45455;-72
2022/08/30 09:47:03;;;;;;;;;9.33;6.67;;;;;28.49;40.61;101550.94;5035830;28;45438;-72
2022/08/30 09:49:39;;;;;;;;;8.00;8.00;;;;;28.39;39.99;101545.72;5036206;28;45798;-72
2022/08/30 09:52:10;;;;;;;;;8.00;6.33;;;;;28.30;40.64;101547.66;5047180;28;45700;-72
2022/08/30 09:55:02;;;;;;;;;9.00;9.00;;;;;28.25;40.09;101555.53;5043299;28;45360;-72
2022/08/30 09:57:54;;;;;;;;;8.00;8.00;;;;;28.19;40.25;101548.06;5028108;28;45595;-71
2022/08/30 10:00:23;;;;;;;;;5.33;4.67;;;;;28.16;40.43;101552.00;5019951;28;45509;-72
2022/08/30 10:02:51;;;;;;;;;7.67;7.67;;;;;28.13;40.87;101553.19;5029938;28;45878;-72
2022/08/30 10:05:44;;;;;;;;;8.67;8.67;;;;;28.11;40.26;101558.00;5029203;28;45546;-72
2022/08/30 10:08:24;;;;;;;;;8.00;7.67;;;;;28.09;40.35;101553.75;5027820;28;45793;-73
2022/08/30 10:10:57;;;;;;;;;10.33;10.00;;;;;28.08;40.04;101552.03;5020185;28;45722;-72
2022/08/30 10:13:48;;;;;;;;;10.00;9.00;;;;;28.05;40.42;101547.81;5028745;28;45415;-72
2022/08/30 10:16:19;;;;;;;;;8.33;7.00;;;;;28.06;40.69;101551.34;5022989;28;46040;-72
2022/08/30 10:19:04;;;;;;;;;9.00;9.00;;;;;28.02;40.87;101553.59;5026310;28;45935;-73
2022/08/30 10:21:36;;;;;;;;;13.67;10.00;;;;;28.01;40.18;101557.38;5028950;28;45487;-72
2022/08/30 10:24:06;;;;;;;;;12.67;8.00;;;;;27.98;40.22;101555.84;5027281;28;46338;-73
2022/08/30 10:26:41;;;;;;;;;9.00;9.00;;;;;27.97;40.03;101548.69;5008165;28;45423;-73
2022/08/30 10:29:15;;;;;;;;;10.00;10.00;;;;;27.97;40.08;101559.63;5028085;28;45541;-73
2022/08/30 10:31:43;;;;;;;;;9.33;8.00;;;;;27.96;40.60;101549.72;5017055;28;45413;-73
2022/08/30 10:34:19;;;;;;;;;7.00;6.33;;;;;27.95;40.04;101550.75;5036714;28;45508;-73
2022/08/30 10:36:55;;;;;;;;;9.67;9.67;;;;;27.96;40.08;101565.25;5041947;28;45431;-73
2022/08/30 10:39:25;;;;;;;;;9.33;9.33;;;;;27.96;39.99;101559.78;5043278;28;45557;-73
2022/08/30 10:42:02;;;;;;;;;8.33;8.33;;;;;27.95;39.97;101548.00;5051148;28;45435;-73
2022/08/30 10:44:35;;;;;;;;;9.33;8.33;;;;;27.93;40.10;101549.22;5051527;28;45474;-71
2022/08/30 10:47:09;;;;;;;;;10.00;8.33;;;;;27.94;40.57;101549.06;5048815;28;45647;-72
2022/08/30 10:49:39;;;;;;;;;8.67;8.67;;;;;27.95;40.34;101564.38;5053754;28;45462;-72
2022/08/30 10:52:33;;;;;;;;;9.00;9.00;;;;;27.97;40.56;101551.44;5042937;28;45362;-72
2022/08/30 10:55:05;;;;;;;;;9.33;7.67;;;;;27.99;39.81;101557.53;5045395;28;46681;-73
2022/08/30 10:57:31;;;;;;;;;10.00;10.00;;;;;28.05;39.26;101555.13;5047611;28;45592;-72
2022/08/30 11:00:01;;;;;;;;;9.67;9.67;;;;;28.12;39.38;101542.47;5056126;28;45497;-73
2022/08/30 11:02:48;;;;;;;;;9.33;9.33;;;;;28.17;39.69;101547.38;5047387;28;45496;-72
2022/08/30 11:05:31;;;;;;;;;11.67;10.00;;;;;28.23;39.39;101552.97;5050010;28;47294;-73
2022/08/30 11:08:29;;;;;;;;;10.67;9.00;;;;;28.27;39.29;101548.88;5044987;28;45451;-74
2022/08/30 11:11:25;;;;;;;;;7.67;7.67;;;;;28.39;38.18;101551.16;5036399;28;45482;-74
2022/08/30 11:13:51;;;;;;;;;8.67;8.67;;;;;28.45;37.72;101555.91;5044854;28;45517;-73
2022/08/30 11:16:18;;;;;;;;;13.00;11.33;;;;;28.47;38.17;101555.72;5043284;28;45564;-73
2022/08/30 11:18:53;;;;;;;;;9.00;9.00;;;;;28.47;37.83;101550.25;5039730;28;45644;-73
2022/08/30 11:21:39;;;;;;;;;9.67;9.67;;;;;28.48;38.26;101546.53;5049582;28;45601;-72
2022/08/30 11:24:21;;;;;;;;;8.00;8.00;;;;;28.49;38.88;101550.94;5042793;28;45558;-73
2022/08/30 11:26:47;;;;;;;;;6.00;6.00;;;;;28.51;38.93;101549.72;5040325;28;47022;-73
2022/08/30 11:29:43;;;;;;;;;11.33;9.00;;;;;28.59;38.74;101550.66;5035568;28;45447;-73
2022/08/30 11:32:12;;;;;;;;;7.33;7.33;;;;;28.63;39.15;101549.28;5038646;28;45515;-73
2022/08/30 11:34:46;;;;;;;;;8.00;7.33;;;;;28.70;38.76;101546.66;5036313;28;45462;-73
2022/08/30 11:37:46;;;;;;;;;9.67;9.00;;;;;28.72;38.66;101547.34;5046663;28;46146;-73
2022/08/30 11:40:21;;;;;;;;;12.67;10.00;;;;;28.71;38.66;101545.63;5011993;28;45532;-73
2022/08/30 11:42:49;;;;;;;;;10.33;8.33;;;;;28.71;38.67;101545.63;5011364;28;45409;-73
2022/08/30 13:19:25;;;;;;;;;11.67;11.00;;;;;25.02;45.91;101503.59;5112558;27;47107;-75
2022/08/30 13:21:52;;;;;;;;;9.33;9.00;;;;;25.20;45.85;101502.66;5106844;27;45741;-74
2022/08/30 13:24:18;;;;;;;;;9.33;9.33;;;;;25.43;45.59;101502.97;5108533;27;45518;-75
2022/08/30 13:26:44;;;;;;;;;11.00;9.00;;;;;25.68;45.00;101491.34;5096692;27;45484;-73
2022/08/30 13:29:18;;;;;;;;;10.33;9.00;;;;;25.94;44.76;101504.03;5095880;27;45460;-73
2022/08/30 13:31:44;;;;;;;;;9.33;8.00;;;;;26.20;43.93;101495.72;5098197;27;45471;-73
2022/08/30 13:34:10;;;;;;;;;9.00;9.00;;;;;26.44;43.96;101494.91;5090435;27;45766;-73
2022/08/30 13:36:47;;;;;;;;;8.33;8.33;;;;;26.68;43.98;101493.19;5096029;27;45937;-74
2022/08/30 13:39:12;;;;;;;;;8.67;8.00;;;;;26.92;43.56;101493.31;5090957;27;46233;-72
2022/08/30 13:41:38;;;;;;;;;9.33;9.00;;;;;27.12;43.17;101482.06;5099139;27;45433;-73
2022/08/30 13:44:03;;;;;;;;;9.00;9.00;;;;;27.32;42.56;101480.66;5095418;27;46754;-73
2022/08/30 13:46:30;;;;;;;;;7.67;7.67;;;;;27.52;42.30;101476.63;5095875;27;45410;-75
2022/08/30 13:49:04;;;;;;;;;9.00;6.67;;;;;27.69;42.06;101483.72;5090468;27;46415;-75
2022/08/30 13:51:31;;;;;;;;;10.67;10.00;;;;;27.84;42.20;101481.06;5100367;27;45406;-74
2022/08/30 13:53:56;;;;;;;;;8.00;7.67;;;;;27.96;41.59;101480.66;5110782;27;45531;-74
2022/08/30 13:56:24;;;;;;;;;8.33;8.33;;;;;28.09;41.95;101483.66;5109476;27;45430;-75
2022/08/30 13:58:49;;;;;;;;;8.33;7.67;;;;;28.21;41.80;101477.75;5110644;27;46223;-75
2022/08/30 14:01:15;;;;;;;;;8.67;8.67;;;;;28.30;40.94;101471.22;5106939;27;45454;-74
2022/08/30 14:03:40;;;;;;;;;10.33;9.67;;;;;28.40;41.20;101474.56;5110526;27;45429;-74
2022/08/30 14:06:06;;;;;;;;;7.67;7.00;;;;;28.50;40.69;101478.91;5110451;27;45436;-74
2022/08/30 14:08:31;;;;;;;;;8.67;7.67;;;;;28.58;41.07;101475.25;5111119;27;46143;-74
2022/08/30 14:10:57;;;;;;;;;8.00;8.00;;;;;28.64;40.50;101464.44;5109420;27;45448;-75
2022/08/30 14:13:24;;;;;;;;;11.00;9.33;;;;;28.70;40.31;101471.03;5103676;27;45695;-74
2022/08/30 14:15:50;;;;;;;;;9.33;9.33;;;;;28.78;39.91;101464.66;5110005;27;45437;-74
2022/08/30 14:18:16;;;;;;;;;8.00;8.00;;;;;28.84;40.22;101465.75;5106179;27;46211;-74
2022/08/30 14:20:42;;;;;;;;;9.67;8.33;;;;;28.91;40.24;101462.16;5099714;27;45360;-74
2022/08/30 14:23:07;;;;;;;;;9.67;9.67;;;;;28.98;40.16;101464.94;5109930;27;45323;-74
2022/08/30 14:25:33;;;;;;;;;11.00;11.00;;;;;29.03;39.85;101459.78;5110351;27;45699;-75
2022/08/30 14:27:59;;;;;;;;;9.33;9.00;;;;;29.09;39.42;101455.44;5109888;27;46292;-75
2022/08/30 14:30:25;;;;;;;;;8.00;8.00;;;;;29.08;39.48;101451.00;5095770;27;45466;-74
2022/08/30 14:32:50;;;;;;;;;7.67;7.67;;;;;29.13;39.57;101461.38;5096197;27;45449;-74
2022/08/30 14:35:19;;;;;;;;;9.00;9.00;;;;;29.17;39.72;101451.75;5096780;27;45516;-74
2022/08/30 14:37:45;;;;;;;;;9.00;8.67;;;;;29.19;39.81;101449.69;5095887;27;45789;-74
2022/08/30 14:40:11;;;;;;;;;7.67;7.67;;;;;29.21;39.47;101453.06;5096396;27;45568;-74
2022/08/30 14:42:37;;;;;;;;;11.33;11.33;;;;;29.23;39.44;101442.81;5095223;27;45502;-74
2022/08/30 14:45:02;;;;;;;;;8.67;8.67;;;;;29.25;39.47;101438.00;5096298;27;45435;-75
2022/08/30 14:47:28;;;;;;;;;10.00;8.00;;;;;29.27;39.61;101435.94;5095859;27;46231;-75
2022/08/30 14:49:57;;;;;;;;;13.00;12.00;;;;;29.30;39.14;101435.53;5085407;27;45529;-76
2022/08/30 14:52:23;;;;;;;;;10.67;10.00;;;;;29.31;39.23;101439.94;5092018;27;45472;-74
2022/08/30 14:54:48;;;;;;;;;9.33;9.33;;;;;29.36;39.36;101438.53;5096738;27;45480;-74
2022/08/30 14:57:14;;;;;;;;;8.00;8.00;;;;;29.37;38.55;101446.53;5094982;27;45410;-74
2022/08/30 14:59:39;;;;;;;;;10.00;9.00;;;;;29.40;38.62;101439.84;5096516;27;46773;-75
2022/08/30 15:02:05;;;;;;;;;10.33;8.67;;;;;29.43;39.27;101434.84;5094744;27;45406;-74
2022/08/30 15:04:30;;;;;;;;;8.00;8.00;;;;;29.42;38.54;101424.94;5095087;27;45613;-74
2022/08/30 15:06:55;;;;;;;;;7.67;7.67;;;;;29.47;38.78;101432.59;5096114;27;47150;-74
2022/08/30 15:09:23;;;;;;;;;10.00;9.00;;;;;29.50;38.97;101432.22;5096200;27;45334;-75
2022/08/30 15:11:48;;;;;;;;;11.33;10.00;;;;;29.50;38.98;101425.88;5094489;27;45455;-75
2022/08/30 15:14:14;;;;;;;;;8.67;8.67;;;;;29.50;39.01;101420.41;5096493;27;45385;-75
2022/08/30 15:16:40;;;;;;;;;9.33;7.33;;;;;29.51;38.57;101422.13;5095236;27;46255;-74
2022/08/30 15:19:07;;;;;;;;;9.00;8.67;;;;;29.52;38.77;101416.47;5081625;27;45542;-75
2022/08/30 15:21:36;;;;;;;;;11.33;9.67;;;;;29.54;38.52;101414.38;5082903;27;45643;-75
2022/08/30 15:24:04;;;;;;;;;11.33;11.33;;;;;29.56;38.31;101415.06;5095224;27;45473;-75
2022/08/30 15:26:29;;;;;;;;;10.67;10.00;;;;;29.56;38.68;101411.47;5094515;27;46262;-75
2022/08/30 15:28:55;;;;;;;;;10.00;9.00;;;;;29.55;38.85;101410.59;5095931;27;45390;-75
2022/08/30 15:31:24;;;;;;;;;8.67;8.00;;;;;29.54;38.69;101408.06;5094637;27;45443;-75
2022/08/30 15:33:50;;;;;;;;;9.00;8.67;;;;;29.53;38.10;101406.38;5095236;27;45476;-75
2022/08/30 15:36:15;;;;;;;;;10.00;9.00;;;;;29.51;38.44;101406.56;5095120;27;45526;-75
2022/08/30 15:38:41;;;;;;;;;9.33;9.33;;;;;29.50;38.65;101406.75;5095040;27;45675;-75
2022/08/30 15:41:08;;;;;;;;;9.00;7.33;;;;;29.52;38.61;101411.00;5091047;27;45309;-74
2022/08/30 15:43:34;;;;;;;;;11.33;10.00;;;;;29.53;38.48;101403.63;5095894;27;45806;-77
2022/08/30 15:46:23;;;;;;;;;9.67;9.67;;;;;29.59;38.64;101405.63;5093834;27;46997;-77
2022/08/30 15:48:54;;;;;;;;;10.33;10.33;;;;;29.65;38.54;101409.44;5080351;27;45334;-77
2022/08/30 15:51:20;;;;;;;;;9.67;9.67;;;;;29.69;37.91;101395.19;5082568;27;45472;-77
2022/08/30 15:53:46;;;;;;;;;10.33;10.33;;;;;29.71;38.69;101389.53;5092069;27;45526;-77
2022/08/30 15:56:12;;;;;;;;;10.00;10.00;;;;;29.74;38.09;101389.13;5093547;27;45512;-77
2022/08/30 15:58:39;;;;;;;;;8.33;8.33;;;;;29.75;37.95;101379.03;5095971;27;45715;-76
2022/08/30 16:01:05;;;;;;;;;12.00;10.00;;;;;29.70;38.41;101377.75;5093478;27;45457;-76
2022/08/30 16:03:32;;;;;;;;;12.00;10.00;;;;;29.36;38.68;101386.59;5092544;27;45525;-76
2022/08/30 16:05:58;;;;;;;;;9.00;8.00;;;;;29.03;39.12;101376.97;5092845;27;46077;-75
2022/08/30 16:08:23;;;;;;;;;10.33;10.00;;;;;28.75;39.11;101378.47;5095204;27;45405;-75
2022/08/30 16:45:48;;;;;;;;;10.33;10.33;;;;;26.49;42.91;101361.03;5072901;27;45396;-75
2022/08/30 16:48:14;;;;;;;;;10.00;9.67;;;;;26.40;43.79;101362.91;5088333;27;45544;-74
2022/08/30 16:50:43;;;;;;;;;12.33;12.33;;;;;26.42;43.97;101357.31;5088501;27;45925;-73
2022/08/30 16:53:10;;;;;;;;;11.00;11.00;;;;;26.47;43.73;101360.34;5088793;27;46006;-74
2022/08/30 16:55:38;;;;;;;;;11.00;10.67;;;;;26.57;43.88;101362.88;5086736;27;45857;-74
2022/08/30 16:58:05;;;;;;;;;11.67;10.33;;;;;26.68;44.08;101357.06;5088664;27;45481;-74
2022/08/30 17:00:32;;;;;;;;;10.67;10.33;;;;;26.81;43.62;101350.22;5088597;27;45835;-74
2022/08/30 17:02:58;;;;;;;;;9.67;9.67;;;;;26.87;43.52;101352.22;5086068;27;45421;-76
2022/08/30 17:05:24;;;;;;;;;11.33;10.00;;;;;26.89;43.36;101354.78;5085516;27;47391;-75
2022/08/30 17:07:50;;;;;;;;;13.33;10.67;;;;;26.90;43.58;101354.59;5083187;27;45429;-75
2022/08/30 17:10:16;;;;;;;;;9.00;9.00;;;;;26.90;43.64;101354.59;5088391;27;45669;-74
2022/08/30 17:12:42;;;;;;;;;11.00;11.00;;;;;26.94;43.75;101357.84;5087543;27;45797;-74
2022/08/30 17:15:08;;;;;;;;;11.00;10.00;;;;;26.94;43.62;101345.06;5088547;27;45913;-75
2022/08/30 17:17:34;;;;;;;;;10.00;10.00;;;;;26.97;43.24;101349.31;5089248;27;45370;-75
2022/08/30 17:19:59;;;;;;;;;11.00;11.00;;;;;27.00;43.65;101351.69;5088289;27;45495;-74
2022/08/30 17:22:24;;;;;;;;;10.33;10.00;;;;;27.09;43.81;101366.09;5085485;27;45533;-73
2022/08/30 18:45:43;;;;;;;;;11.33;10.00;;;;;25.30;46.69;101412.91;5110282;27;45449;-72
2022/08/30 18:48:08;;;;;;;;;14.67;11.33;;;;;25.39;46.50;101407.31;5111031;27;45499;-72
2022/08/30 18:50:33;;;;;;;;;11.00;10.67;;;;;25.55;46.21;101418.41;5103340;27;45476;-72
2022/08/30 18:52:59;;;;;;;;;8.00;8.00;;;;;25.75;45.82;101416.28;5109744;27;45823;-73
2022/08/30 18:55:25;;;;;;;;;8.67;8.67;;;;;25.92;46.43;101428.03;5101803;27;45816;-75
2022/08/30 18:57:51;;;;;;;;;8.67;8.67;;;;;26.03;46.42;101422.25;5108834;27;45819;-75
2022/08/30 19:00:16;;;;;;;;;10.33;10.33;;;;;26.17;45.98;101431.59;5108583;27;45882;-75
2022/08/30 19:02:45;;;;;;;;;8.67;8.67;;;;;26.29;45.82;101431.31;5109785;27;45568;-75
2022/08/30 19:05:14;;;;;;;;;8.67;8.67;;;;;26.40;45.68;101441.00;5107100;27;45421;-75
2022/08/30 19:07:40;;;;;;;;;9.00;9.00;;;;;26.50;45.96;101451.69;5100727;27;45561;-75
2022/08/30 19:10:06;;;;;;;;;8.67;8.67;;;;;26.59;45.65;101447.94;5110992;27;45650;-76
2022/08/30 19:12:31;;;;;;;;;6.00;6.00;;;;;26.72;45.55;101455.56;5121862;27;45572;-75
2022/08/30 19:14:58;;;;;;;;;7.67;7.33;;;;;26.85;45.90;101460.47;5104723;27;45484;-75
2022/08/30 19:17:24;;;;;;;;;8.00;8.00;;;;;26.99;45.61;101469.84;5108045;27;45393;-75
2022/08/30 19:19:50;;;;;;;;;8.00;8.00;;;;;27.13;45.64;101470.16;5101070;27;45582;-75
2022/08/30 19:22:21;;;;;;;;;8.67;7.00;;;;;27.26;44.90;101469.59;5106918;27;45441;-75
2022/08/30 19:24:46;;;;;;;;;9.00;7.67;;;;;27.30;45.44;101469.06;5101635;27;45457;-75
2022/08/30 19:27:12;;;;;;;;;9.00;7.67;;;;;27.34;45.08;101473.13;5109696;27;45560;-75
2022/08/30 19:29:39;;;;;;;;;7.33;7.33;;;;;27.39;44.79;101478.06;5106222;27;45765;-75
2022/08/30 19:32:04;;;;;;;;;7.33;6.00;;;;;27.45;44.93;101476.47;5109009;27;45516;-76
2022/08/30 19:34:30;;;;;;;;;8.00;8.00;;;;;27.52;45.31;101471.16;5104468;27;46307;-76
2022/08/30 19:36:55;;;;;;;;;7.33;6.33;;;;;27.57;45.38;101477.78;5110817;27;45597;-76
2022/08/30 19:39:20;;;;;;;;;8.00;7.33;;;;;27.64;44.67;101480.69;5108684;27;45788;-74
2022/08/30 19:41:46;;;;;;;;;8.67;8.67;;;;;27.65;44.15;101479.66;5109106;27;45471;-75
2022/08/30 19:44:11;;;;;;;;;9.00;6.00;;;;;27.63;44.51;101484.47;5095315;27;46927;-75
2022/08/30 19:46:36;;;;;;;;;10.33;9.00;;;;;27.62;44.94;101486.31;5099885;27;45436;-75
2022/08/30 19:49:03;;;;;;;;;8.33;8.33;;;;;27.62;45.14;101482.72;5111103;27;45330;-75
2022/08/30 19:51:29;;;;;;;;;6.33;6.00;;;;;27.61;45.36;101483.78;5108395;27;45414;-75
2022/08/30 19:53:56;;;;;;;;;9.00;7.33;;;;;27.61;45.01;101481.91;5106584;27;45774;-75
2022/08/30 19:56:22;;;;;;;;;7.33;7.33;;;;;27.62;45.25;101483.59;5094423;27;45649;-75
2022/08/30 19:58:47;;;;;;;;;6.33;6.33;;;;;27.70;44.72;101490.00;5095708;27;45443;-75
2022/08/30 20:01:13;;;;;;;;;6.00;6.00;;;;;27.78;45.30;101487.25;5091191;27;45745;-75
2022/08/30 20:03:38;;;;;;;;;6.33;6.00;;;;;27.85;45.33;101490.13;5092567;27;47271;-75
2022/08/30 20:06:04;;;;;;;;;5.67;5.67;;;;;27.87;44.80;101485.31;5080010;27;45520;-74
2022/08/30 20:08:29;;;;;;;;;7.00;7.00;;;;;27.91;45.04;101489.38;5090929;27;45395;-73
2022/08/30 20:10:55;;;;;;;;;6.00;6.00;;;;;27.95;44.83;101496.19;5095752;27;45441;-73
2022/08/30 20:13:20;;;;;;;;;9.00;6.67;;;;;28.00;45.20;101493.75;5089802;27;45454;-73
2022/08/30 20:15:55;;;;;;;;;7.33;7.33;;;;;28.04;45.19;101494.25;5095462;27;45460;-75
2022/08/30 20:18:20;;;;;;;;;7.00;7.00;;;;;28.02;45.02;101499.91;5083566;27;45776;-75
2022/08/30 20:20:46;;;;;;;;;8.00;6.33;;;;;28.01;45.42;101506.38;5095753;27;45458;-74
2022/08/30 20:23:11;;;;;;;;;7.00;7.00;;;;;27.98;45.53;101497.69;5091852;27;45486;-73
2022/08/30 20:25:36;;;;;;;;;10.00;8.00;;;;;27.96;45.03;101508.78;5095029;27;45457;-74
2022/08/30 20:28:03;;;;;;;;;5.67;5.67;;;;;27.96;45.03;101506.06;5094104;27;45679;-74
2022/08/30 20:30:29;;;;;;;;;6.00;6.00;;;;;27.97;45.81;101510.50;5083146;27;45506;-74
2022/08/30 20:32:54;;;;;;;;;5.67;5.67;;;;;27.97;45.74;101498.72;5092451;27;45762;-75
2022/08/30 20:35:20;;;;;;;;;7.00;7.00;;;;;27.98;45.23;101504.00;5085952;27;45383;-74
2022/08/30 20:37:45;;;;;;;;;4.67;4.67;;;;;28.01;45.22;101511.84;5094177;27;45267;-75
2022/08/30 20:40:12;;;;;;;;;6.00;6.00;;;;;28.03;45.87;101508.91;5089810;27;45343;-75
2022/08/30 20:42:40;;;;;;;;;5.33;5.33;;;;;28.06;45.95;101503.09;5088808;27;45455;-74
2022/08/30 20:45:06;;;;;;;;;8.67;8.67;;;;;28.23;44.78;101509.28;5087942;27;45724;-74
2022/08/30 20:47:33;;;;;;;;;11.00;11.00;;;;;28.37;43.85;101501.38;5092260;27;45542;-73
2022/08/30 20:49:59;;;;;;;;;12.00;12.00;;;;;28.36;44.07;101505.16;5088994;27;45461;-73
2022/08/30 20:52:24;;;;;;;;;10.00;10.00;;;;;28.34;43.32;101499.88;5094845;27;45986;-73
2022/08/30 20:54:50;;;;;;;;;12.00;10.00;;;;;28.37;43.75;101502.22;5088420;27;46437;-73
2022/08/30 20:57:15;;;;;;;;;11.00;11.00;;;;;28.40;43.69;101503.72;5094473;27;45782;-73